Darstellungsparameter: Aktuell verwendete Einstellungen:
Skalierung der Graphiken ... ?
xyx+y,   Skalierungsfaktor:      Skalierung: Modus: x, Faktor: 1
Darstellungszeitraum ... ?
Vom - - bis: - -   Zeitraum: 18.05.2021 - 18.05.2021
Min/Max/Avg-Anzeige ... ?
Zeige MMA aktuell
Zeige MMA Monat
Zeige MMA alles
Zeige --A aktuell
Zeige --A Monat
Zeige --A alles
Keine MMA-Anzeige
MMA:
Minimum Maximum Average (ber die Originaldaten)
MMA-Basis: 23.02.2003 - 16.05.2020
Quicknavigation für Darstellung... ?
Tage:      1T, 2T, 3T, 5T -1T -2T -3T -5T +1T +2T +3T +5T
Wochen: 1W, 2W, 3W -1W -2W -3W +1W +2W +3W
Monate: 1M, 3M, 6M -1M -3M -6M +1M +3M +6M
Jahre:    1J, 3J, 5J, 10J -1J -3J -5J -10J +1J +3J +5J +10J
Nutze für die Darstellung ... ?
Originaldaten oder Mittelwerte auf ...
Stundenbasis Tagesbasis Wochenbasis
Monatsbasis Jahresbasis      Datenbasis: Original-Daten
Darstellen als:
Statistik (Auto) Statistik J:M      Darstellung:

Der gewünschte Datumsbereich war nicht gültig/verfügbar und wurde korrigiert....
Das angegebene Enddatum (15.05.2023 23:59:59) liegt in der Zukunft.
Das angegebene Startdatum (02.05.2023 00:00:00) liegt in der Zukunft.


Zur Graphik,    zurück zur Übersicht aller Sensoren.
 
Tabellarische Datenbersicht: ?
 
Sensor: Nr:Datum:Temp:Abs-Feuchte:Windchill:Wind:
Aussen-T/F 1 18-05-2021 02:00:00 10.9 C 8.85 g/m*3 10.04 C 8.1 km/h
2 18-05-2021 02:05:00 10.9 C 8.95 g/m*3 10.9 C 4.8 km/h
3 18-05-2021 02:10:00 10.9 C 8.95 g/m*3 10.9 C 3.2 km/h
4 18-05-2021 02:15:00 10.8 C 8.9 g/m*3 10.8 C 4.8 km/h
5 18-05-2021 02:20:00 10.8 C 8.9 g/m*3 10.8 C 3.2 km/h
6 18-05-2021 02:25:00 10.7 C 8.94 g/m*3 10.7 C 3.2 km/h
7 18-05-2021 02:30:00 10.7 C 8.94 g/m*3 10.7 C 1.6 km/h
8 18-05-2021 02:35:00 10.6 C 8.88 g/m*3 10.6 C 1.6 km/h
9 18-05-2021 02:40:00 10.5 C 8.92 g/m*3 10.5 C 3.2 km/h
10 18-05-2021 02:45:00 10.4 C 8.87 g/m*3 10.4 C 4.8 km/h
11 18-05-2021 02:50:00 10.3 C 8.81 g/m*3 10.3 C 4.8 km/h
12 18-05-2021 02:55:00 10.2 C 8.76 g/m*3 9.6 C 6.4 km/h
13 18-05-2021 03:00:00 10.2 C 8.76 g/m*3 10.2 C 1.6 km/h
14 18-05-2021 03:05:00 10.2 C 8.76 g/m*3 10.2 C 3.2 km/h
15 18-05-2021 03:10:00 10.1 C 8.7 g/m*3 10.1 C 3.2 km/h
16 18-05-2021 03:15:00 10.1 C 8.79 g/m*3 10.1 C 4.8 km/h
17 18-05-2021 03:20:00 10 C 8.74 g/m*3 10 C 3.2 km/h
18 18-05-2021 03:25:00 9.9 C 8.68 g/m*3 9.9 C 4.8 km/h
19 18-05-2021 03:30:00 9.8 C 8.63 g/m*3 9.8 C 3.2 km/h
20 18-05-2021 03:35:00 9.8 C 8.63 g/m*3 9.8 C 1.6 km/h
21 18-05-2021 03:40:00 9.8 C 8.63 g/m*3 9.8 C 4.8 km/h
22 18-05-2021 03:45:00 9.7 C 8.57 g/m*3 9.7 C 3.2 km/h
23 18-05-2021 03:50:00 9.7 C 8.57 g/m*3 9.02 C 6.4 km/h
24 18-05-2021 03:55:00 9.7 C 8.57 g/m*3 9.7 C 4.8 km/h
25 18-05-2021 04:00:00 9.6 C 8.52 g/m*3 8.52 C 8.1 km/h
Sensor: Nr:Datum:Temp:Abs-Feuchte:Windchill:Wind:
Aussen-T/F 26 18-05-2021 04:05:00 9.5 C 8.47 g/m*3 8.79 C 6.4 km/h
27 18-05-2021 04:10:00 9.4 C 8.41 g/m*3 9.4 C 4.8 km/h
28 18-05-2021 04:15:00 9.4 C 8.41 g/m*3 9.4 C 3.2 km/h
29 18-05-2021 04:20:00 9.3 C 8.36 g/m*3 8.56 C 6.4 km/h
30 18-05-2021 04:25:00 9.3 C 8.36 g/m*3 7.58 C 11.3 km/h
31 18-05-2021 04:30:00 9.3 C 8.36 g/m*3 8.56 C 6.4 km/h
32 18-05-2021 04:35:00 9.3 C 8.36 g/m*3 8.16 C 8.1 km/h
33 18-05-2021 04:40:00 9.4 C 8.41 g/m*3 9.4 C 4.8 km/h
34 18-05-2021 04:45:00 9.4 C 8.41 g/m*3 9.4 C 3.2 km/h
35 18-05-2021 04:50:00 9.4 C 8.41 g/m*3 9.4 C 1.6 km/h
36 18-05-2021 04:55:00 9.4 C 8.41 g/m*3 9.4 C 4.8 km/h
37 18-05-2021 05:00:00 9.3 C 8.36 g/m*3 9.3 C 1.6 km/h
38 18-05-2021 05:05:00 9.3 C 8.36 g/m*3 9.3 C 3.2 km/h
39 18-05-2021 05:10:00 9.2 C 8.3 g/m*3 9.2 C 3.2 km/h
40 18-05-2021 05:15:00 9.2 C 8.3 g/m*3 9.2 C 1.6 km/h
41 18-05-2021 05:20:00 9.3 C 8.45 g/m*3 8.56 C 6.4 km/h
42 18-05-2021 05:25:00 9.3 C 8.45 g/m*3 8.16 C 8.1 km/h
43 18-05-2021 05:30:00 9.4 C 8.41 g/m*3 9.4 C 3.2 km/h
44 18-05-2021 05:35:00 9.4 C 8.41 g/m*3 9.4 C 3.2 km/h
45 18-05-2021 05:40:00 9.4 C 8.41 g/m*3 9.4 C 3.2 km/h
46 18-05-2021 05:45:00 9.4 C 8.41 g/m*3 9.4 C 3.2 km/h
47 18-05-2021 05:50:00 9.4 C 8.41 g/m*3 9.4 C 3.2 km/h
48 18-05-2021 05:55:00 9.3 C 8.36 g/m*3 8.56 C 6.4 km/h
49 18-05-2021 06:00:00 9.3 C 8.36 g/m*3 8.56 C 6.4 km/h
50 18-05-2021 06:05:00 9.2 C 8.3 g/m*3 8.45 C 6.4 km/h
Sensor: Nr:Datum:Temp:Abs-Feuchte:Windchill:Wind:
Aussen-T/F 51 18-05-2021 06:10:00 9.1 C 8.16 g/m*3 9.1 C 3.2 km/h
52 18-05-2021 06:15:00 9.1 C 8.16 g/m*3 9.1 C 3.2 km/h
53 18-05-2021 06:20:00 9 C 8.2 g/m*3 9 C 1.6 km/h
54 18-05-2021 06:25:00 8.9 C 8.15 g/m*3 8.9 C 1.6 km/h
55 18-05-2021 06:30:00 8.8 C 8.09 g/m*3 8.8 C 1.6 km/h
56 18-05-2021 06:35:00 8.8 C 8.09 g/m*3 8.8 C 0 km/h
57 18-05-2021 06:40:00 8.8 C 8.09 g/m*3 8.8 C 3.2 km/h
58 18-05-2021 06:45:00 8.8 C 8.09 g/m*3 8.8 C 3.2 km/h
59 18-05-2021 06:50:00 8.9 C 8.23 g/m*3 8.9 C 4.8 km/h
60 18-05-2021 06:55:00 9 C 8.29 g/m*3 9 C 1.6 km/h
61 18-05-2021 07:00:00 9.1 C 8.34 g/m*3 9.1 C 0 km/h
62 18-05-2021 07:05:00 9.1 C 8.34 g/m*3 9.1 C 0 km/h
63 18-05-2021 07:10:00 9.2 C 8.39 g/m*3 9.2 C 1.6 km/h
64 18-05-2021 07:15:00 9.2 C 8.39 g/m*3 9.2 C 1.6 km/h
65 18-05-2021 07:20:00 9.3 C 8.45 g/m*3 8.56 C 6.4 km/h
66 18-05-2021 07:25:00 9.4 C 8.5 g/m*3 9.4 C 3.2 km/h
67 18-05-2021 07:30:00 9.5 C 8.56 g/m*3 9.5 C 3.2 km/h
68 18-05-2021 07:35:00 9.7 C 8.67 g/m*3 9.02 C 6.4 km/h
69 18-05-2021 07:40:00 9.8 C 8.72 g/m*3 8.45 C 9.7 km/h
70 18-05-2021 07:45:00 10.1 C 8.89 g/m*3 8.8 C 9.7 km/h
71 18-05-2021 07:50:00 10.2 C 8.85 g/m*3 10.2 C 3.2 km/h
72 18-05-2021 07:55:00 10.3 C 8.91 g/m*3 10.3 C 3.2 km/h
73 18-05-2021 08:00:00 10.4 C 8.96 g/m*3 9.83 C 6.4 km/h
74 18-05-2021 08:05:00 10.5 C 8.92 g/m*3 8.4 C 16.1 km/h
75 18-05-2021 08:10:00 10.8 C 8.99 g/m*3 8.78 C 16.1 km/h
Sensor: Nr:Datum:Temp:Abs-Feuchte:Windchill:Wind:
Aussen-T/F 76 18-05-2021 08:15:00 11 C 9.01 g/m*3 10.16 C 8.1 km/h
77 18-05-2021 08:20:00 11.1 C 8.96 g/m*3 11.1 C 9.7 km/h
78 18-05-2021 08:25:00 11.2 C 9.02 g/m*3 11.2 C 9.7 km/h
79 18-05-2021 08:30:00 11.3 C 8.98 g/m*3 11.3 C 11.3 km/h
80 18-05-2021 08:35:00 11.3 C 8.98 g/m*3 11.3 C 6.4 km/h
81 18-05-2021 08:40:00 11.4 C 9.03 g/m*3 11.4 C 8.1 km/h
82 18-05-2021 08:45:00 11.5 C 9.09 g/m*3 11.5 C 4.8 km/h
83 18-05-2021 08:50:00 11.7 C 9.1 g/m*3 11.7 C 12.9 km/h
84 18-05-2021 08:55:00 11.8 C 9.05 g/m*3 11.8 C 11.3 km/h
85 18-05-2021 09:00:00 12 C 9.17 g/m*3 12 C 9.7 km/h

Legende:
   Min
   Max


Maximal/Minimal-Werte vom 23.02.2003 - 16.05.2020

Sensor Min Max Avg
Temp
(Aussen-T/F)
-16.4 °C
20-12-2009  01:30:01
40.4 °C
25-07-2019  16:20:00
11.1 °C

Die Daten stammen von einer Davis Vantage Pro 2 Wetter-Station und werden unter Linux mit der Software wview2wettercgi und aufbereitet. Alle Angaben erfolgen ohne Gewähr für ihre Vollständigkeit oder Richtigkeit.
Kontakt: Rainer Krienke krienke@uni-koblenz.de . Meine Webseiten an der Uni Koblenz oder privat.
Version: $Revision: 0.78 $